Time,TemperatureF,DewpointF,PressureIn,WindDirection,WindDirectionDegrees,WindSpeedMPH,WindSpeedGustMPH,Humidity,HourlyPrecipIn,Conditions,Clouds,dailyrainin,SoftwareType,DateUTC
2013-03-11 00:04:00,47.8,22.8,30.06,North,0,0.0,0.0,37,0.00,,---,0.00,VWS V13.01,2013-03-11 06:04:00,
2013-03-11 00:09:00,47.8,22.8,30.06,NNW,338,8.9,8.9,37,0.00,,---,0.00,VWS V13.01,2013-03-11 06:09:00,
2013-03-11 00:14:00,47.6,23.3,30.07,NNE,22,9.1,10.7,38,0.00,,---,0.00,VWS V13.01,2013-03-11 06:14:00,
2013-03-11 00:19:00,47.4,23.1,30.07,WNW,292,0.0,10.0,38,0.00,,---,0.00,VWS V13.01,2013-03-11 06:19:00,
2013-03-11 00:25:00,47.3,23.6,30.07,North,0,0.0,0.0,39,0.00,,---,0.00,VWS V13.01,2013-03-11 06:25:00,
2013-03-11 00:30:00,47.1,24.0,30.07,NW,315,0.0,0.0,40,0.00,,---,0.00,VWS V13.01,2013-03-11 06:30:00,
2013-03-11 00:35:00,47.1,24.0,30.07,West,270,2.4,2.4,40,0.00,,---,0.00,VWS V13.01,2013-03-11 06:35:00,
2013-03-11 00:40:00,46.9,23.9,30.07,NW,315,0.0,0.0,40,0.00,,---,0.00,VWS V13.01,2013-03-11 06:40:00,
2013-03-11 00:45:00,46.9,25.0,30.07,WNW,292,0.0,0.0,42,0.00,,---,0.00,VWS V13.01,2013-03-11 06:45:00,
2013-03-11 00:50:00,46.7,26.0,30.07,North,0,0.0,0.0,44,0.00,,---,0.00,VWS V13.01,2013-03-11 06:50:00,
2013-03-11 00:55:00,46.5,26.9,30.07,NW,315,0.0,0.0,46,0.00,,---,0.00,VWS V13.01,2013-03-11 06:55:00,
2013-03-11 01:00:00,46.2,26.6,30.07,WNW,292,8.2,8.2,46,0.00,,---,0.00,VWS V13.01,2013-03-11 07:00:00,
2013-03-11 01:06:00,46.2,27.1,30.07,NNW,338,10.0,10.0,47,0.00,,---,0.00,VWS V13.01,2013-03-11 07:06:00,
2013-03-11 01:11:00,46.0,26.9,30.07,North,0,5.3,5.3,47,0.00,,---,0.00,VWS V13.01,2013-03-11 07:11:00,
2013-03-11 01:16:00,45.8,26.7,30.07,NW,315,8.0,8.0,47,0.00,,---,0.00,VWS V13.01,2013-03-11 07:16:00,
2013-03-11 01:21:00,45.6,26.5,30.06,NNW,338,0.0,1.3,47,0.00,,---,0.00,VWS V13.01,2013-03-11 07:21:00,
2013-03-11 01:26:00,45.5,26.5,30.07,West,270,8.0,8.0,47,0.00,,---,0.00,VWS V13.01,2013-03-11 07:26:00,
2013-03-11 01:31:00,45.3,26.3,30.07,WNW,292,5.8,5.8,47,0.00,,---,0.00,VWS V13.01,2013-03-11 07:31:00,
2013-03-11 01:37:00,45.1,25.6,30.07,WNW,292,6.2,6.2,46,0.00,,---,0.00,VWS V13.01,2013-03-11 07:37:00,
2013-03-11 01:43:00,45.1,25.6,30.07,NNW,338,5.3,5.3,46,0.00,,---,0.00,VWS V13.01,2013-03-11 07:43:00,
2013-03-11 01:48:00,44.9,25.9,30.07,West,270,1.7,1.7,47,0.00,,---,0.00,VWS V13.01,2013-03-11 07:48:00,
2013-03-11 01:53:00,44.6,25.6,30.07,WSW,248,6.2,6.2,47,0.00,,---,0.00,VWS V13.01,2013-03-11 07:53:00,
2013-03-11 01:59:00,44.4,26.0,30.07,West,270,3.8,3.8,48,0.00,,---,0.00,VWS V13.01,2013-03-11 07:59:00,
2013-03-11 02:04:00,44.2,25.8,30.07,West,270,5.5,5.5,48,0.00,,---,0.00,VWS V13.01,2013-03-11 08:04:00,
2013-03-11 02:09:00,44.0,25.6,30.08,West,270,2.6,2.6,48,0.00,,---,0.00,VWS V13.01,2013-03-11 08:09:00,
2013-03-11 02:14:00,43.8,25.9,30.07,West,270,3.5,3.5,49,0.00,,---,0.00,VWS V13.01,2013-03-11 08:14:00,
2013-03-11 02:19:00,43.7,25.8,30.07,West,270,3.8,4.4,49,0.00,,---,0.00,VWS V13.01,2013-03-11 08:19:00,
2013-03-11 02:24:00,43.5,25.6,30.07,WSW,248,3.1,3.1,49,0.00,,---,0.00,VWS V13.01,2013-03-11 08:24:00,
2013-03-11 02:29:00,43.5,25.6,30.07,SW,225,0.8,2.6,49,0.00,,---,0.00,VWS V13.01,2013-03-11 08:29:00,
2013-03-11 02:34:00,43.3,25.4,30.07,WSW,248,6.7,6.7,49,0.00,,---,0.00,VWS V13.01,2013-03-11 08:34:00,
2013-03-11 02:39:00,43.3,25.4,30.07,WSW,248,2.6,2.6,49,0.00,,---,0.00,VWS V13.01,2013-03-11 08:39:00,
2013-03-11 02:44:00,42.9,25.1,30.07,WSW,248,5.5,8.5,49,0.00,,---,0.00,VWS V13.01,2013-03-11 08:44:00,
2013-03-11 02:50:00,42.9,25.1,30.07,WSW,248,5.1,5.1,49,0.00,,---,0.00,VWS V13.01,2013-03-11 08:50:00,
2013-03-11 02:55:00,42.9,25.1,30.08,WSW,248,5.8,7.3,49,0.00,,---,0.00,VWS V13.01,2013-03-11 08:55:00,
2013-03-11 03:00:00,42.9,25.6,30.08,WSW,248,0.0,0.0,50,0.00,,---,0.00,VWS V13.01,2013-03-11 09:00:00,
2013-03-11 03:05:00,42.8,25.5,30.08,WSW,248,6.2,6.2,50,0.00,,---,0.00,VWS V13.01,2013-03-11 09:05:00,
2013-03-11 03:10:00,42.6,25.3,30.08,WSW,248,2.9,2.9,50,0.00,,---,0.00,VWS V13.01,2013-03-11 09:10:00,
2013-03-11 03:15:00,42.6,25.3,30.08,WSW,248,4.9,4.9,50,0.00,,---,0.00,VWS V13.01,2013-03-11 09:15:00,
2013-03-11 03:20:00,42.6,24.8,30.08,SW,225,2.0,2.0,49,0.00,,---,0.00,VWS V13.01,2013-03-11 09:20:00,
2013-03-11 03:25:00,42.4,25.1,30.08,SW,225,1.3,1.3,50,0.00,,---,0.00,VWS V13.01,2013-03-11 09:25:00,
2013-03-11 03:30:00,42.4,24.6,30.08,WSW,248,0.8,0.8,49,0.00,,---,0.00,VWS V13.01,2013-03-11 09:30:00,
2013-03-11 03:35:00,42.0,24.2,30.08,SW,225,5.1,5.1,49,0.00,,---,0.00,VWS V13.01,2013-03-11 09:35:00,
2013-03-11 03:40:00,42.0,24.7,30.08,WSW,248,0.0,0.0,50,0.00,,---,0.00,VWS V13.01,2013-03-11 09:40:00,
2013-03-11 03:45:00,41.9,24.6,30.08,WSW,248,0.0,0.0,50,0.00,,---,0.00,VWS V13.01,2013-03-11 09:45:00,
2013-03-11 03:50:00,41.7,24.5,30.08,WSW,248,0.0,0.0,50,0.00,,---,0.00,VWS V13.01,2013-03-11 09:50:00,
2013-03-11 03:55:00,41.3,24.1,30.08,WSW,248,4.4,4.4,50,0.00,,---,0.00,VWS V13.01,2013-03-11 09:55:00,
2013-03-11 04:00:00,41.1,23.9,30.08,West,270,4.2,4.2,50,0.00,,---,0.00,VWS V13.01,2013-03-11 10:00:00,
2013-03-11 04:05:00,40.8,23.6,30.07,West,270,0.0,0.0,50,0.00,,---,0.00,VWS V13.01,2013-03-11 10:05:00,
2013-03-11 04:10:00,40.6,23.9,30.07,West,270,1.1,1.1,51,0.00,,---,0.00,VWS V13.01,2013-03-11 10:10:00,
2013-03-11 04:15:00,40.4,23.7,30.07,West,270,0.0,0.0,51,0.00,,---,0.00,VWS V13.01,2013-03-11 10:15:00,
2013-03-11 04:20:00,40.2,23.5,30.07,West,270,4.4,4.4,51,0.00,,---,0.00,VWS V13.01,2013-03-11 10:20:00,
2013-03-11 04:25:00,40.1,23.4,30.08,WSW,248,6.4,6.4,51,0.00,,---,0.00,VWS V13.01,2013-03-11 10:25:00,
2013-03-11 04:30:00,39.9,23.3,30.08,West,270,5.8,5.8,51,0.00,,---,0.00,VWS V13.01,2013-03-11 10:30:00,
2013-03-11 04:35:00,39.9,23.3,30.07,West,270,4.6,4.6,51,0.00,,---,0.00,VWS V13.01,2013-03-11 10:35:00,
2013-03-11 04:40:00,40.1,23.4,30.07,West,270,15.2,15.2,51,0.00,,---,0.00,VWS V13.01,2013-03-11 10:40:00,
2013-03-11 04:45:00,40.6,23.4,30.07,West,270,9.3,9.3,50,0.00,,---,0.00,VWS V13.01,2013-03-11 10:45:00,
2013-03-11 04:51:00,41.1,23.4,30.07,WSW,248,10.7,10.7,49,0.00,,---,0.00,VWS V13.01,2013-03-11 10:51:00,
2013-03-11 04:56:00,41.3,23.6,30.08,West,270,7.1,7.1,49,0.00,,---,0.00,VWS V13.01,2013-03-11 10:56:00,
2013-03-11 05:02:00,41.5,23.3,30.08,West,270,11.8,11.8,48,0.00,,---,0.00,VWS V13.01,2013-03-11 11:02:00,
2013-03-11 05:08:00,41.7,23.5,30.08,West,270,3.3,5.3,48,0.00,,---,0.00,VWS V13.01,2013-03-11 11:08:00,
2013-03-11 05:13:00,41.5,23.3,30.09,WNW,292,6.2,6.2,48,0.00,,---,0.00,VWS V13.01,2013-03-11 11:13:00,
2013-03-11 05:18:00,41.5,22.8,30.09,WNW,292,5.3,5.3,47,0.00,,---,0.00,VWS V13.01,2013-03-11 11:18:00,
2013-03-11 05:23:00,41.3,22.6,30.09,NW,315,5.3,5.3,47,0.00,,---,0.00,VWS V13.01,2013-03-11 11:23:00,
2013-03-11 05:28:00,41.1,22.9,30.10,West,270,8.7,8.7,48,0.00,,---,0.00,VWS V13.01,2013-03-11 11:28:00,
2013-03-11 05:33:00,41.0,22.8,30.10,NNE,22,6.7,6.7,48,0.00,,---,0.00,VWS V13.01,2013-03-11 11:33:00,
2013-03-11 05:38:00,40.8,22.6,30.10,NNE,22,2.4,4.2,48,0.00,,---,0.00,VWS V13.01,2013-03-11 11:38:00,
2013-03-11 05:43:00,40.8,22.6,30.11,NNE,22,0.0,0.0,48,0.00,,---,0.00,VWS V13.01,2013-03-11 11:43:00,
2013-03-11 05:48:00,40.2,22.6,30.11,North,0,0.0,0.0,49,0.00,,---,0.00,VWS V13.01,2013-03-11 11:48:00,
2013-03-11 05:53:00,39.9,22.3,30.11,NNW,338,4.0,4.0,49,0.00,,---,0.00,VWS V13.01,2013-03-11 11:53:00,
2013-03-11 05:58:00,39.7,22.1,30.11,WNW,292,0.6,0.6,49,0.00,,---,0.00,VWS V13.01,2013-03-11 11:58:00,
2013-03-11 06:03:00,39.3,22.2,30.11,North,0,5.5,5.5,50,0.00,,---,0.00,VWS V13.01,2013-03-11 12:03:00,
2013-03-11 06:08:00,39.0,22.0,30.11,NNE,22,0.0,2.0,50,0.00,,---,0.00,VWS V13.01,2013-03-11 12:08:00,
2013-03-11 06:13:00,38.8,21.8,30.12,North,0,1.5,1.5,50,0.00,,---,0.00,VWS V13.01,2013-03-11 12:13:00,
2013-03-11 06:18:00,38.4,21.4,30.12,NNE,22,0.0,0.0,50,0.00,,---,0.00,VWS V13.01,2013-03-11 12:18:00,
2013-03-11 06:23:00,38.4,21.4,30.12,ENE,68,0.0,0.0,50,0.00,,---,0.00,VWS V13.01,2013-03-11 12:23:00,
2013-03-11 06:28:00,38.1,21.6,30.12,ENE,68,0.0,0.0,51,0.00,,---,0.00,VWS V13.01,2013-03-11 12:28:00,
2013-03-11 06:33:00,37.9,21.4,30.12,ENE,68,0.0,0.0,51,0.00,,---,0.00,VWS V13.01,2013-03-11 12:33:00,
2013-03-11 06:38:00,37.9,21.4,30.13,ENE,68,0.0,0.0,51,0.00,,---,0.00,VWS V13.01,2013-03-11 12:38:00,
2013-03-11 06:43:00,37.7,21.2,30.13,ENE,68,0.0,0.0,51,0.00,,---,0.00,VWS V13.01,2013-03-11 12:43:00,
2013-03-11 06:48:00,37.5,21.0,30.13,ENE,68,0.0,0.0,51,0.00,,---,0.00,VWS V13.01,2013-03-11 12:48:00,
2013-03-11 06:53:00,37.2,21.2,30.13,ENE,68,0.0,0.0,52,0.00,,---,0.00,VWS V13.01,2013-03-11 12:53:00,
2013-03-11 06:58:00,36.8,20.4,30.13,ENE,68,0.0,0.0,51,0.00,,---,0.00,VWS V13.01,2013-03-11 12:58:00,
2013-03-11 07:04:00,36.3,20.4,30.13,ENE,68,0.0,0.0,52,0.00,,---,0.00,VWS V13.01,2013-03-11 13:04:00,
2013-03-11 07:09:00,35.9,20.0,30.13,ENE,68,0.0,0.0,52,0.00,,---,0.00,VWS V13.01,2013-03-11 13:09:00,
2013-03-11 07:14:00,35.4,20.0,30.13,ENE,68,0.0,0.0,53,0.00,,---,0.00,VWS V13.01,2013-03-11 13:14:00,
2013-03-11 07:19:00,35.2,20.2,30.13,ENE,68,0.0,0.0,54,0.00,,---,0.00,VWS V13.01,2013-03-11 13:19:00,
2013-03-11 07:24:00,34.8,19.9,30.13,East,90,0.0,0.0,54,0.00,,---,0.00,VWS V13.01,2013-03-11 13:24:00,
2013-03-11 07:30:00,34.3,19.4,30.13,East,90,0.0,0.0,54,0.00,,---,0.00,VWS V13.01,2013-03-11 13:30:00,
2013-03-11 07:36:00,34.1,19.6,30.13,East,90,0.0,0.0,55,0.00,,---,0.00,VWS V13.01,2013-03-11 13:36:00,
2013-03-11 07:41:00,33.9,19.5,30.13,East,90,0.0,0.0,55,0.00,,---,0.00,VWS V13.01,2013-03-11 13:41:00,
2013-03-11 07:47:00,33.6,19.6,30.12,East,90,0.0,0.0,56,0.00,,---,0.00,VWS V13.01,2013-03-11 13:47:00,
2013-03-11 07:52:00,33.4,19.4,30.12,SSE,158,0.0,0.0,56,0.00,,---,0.00,VWS V13.01,2013-03-11 13:52:00,
2013-03-11 07:57:00,33.2,19.6,30.13,SSE,158,0.0,0.0,57,0.00,,---,0.00,VWS V13.01,2013-03-11 13:57:00,
2013-03-11 08:02:00,33.0,19.4,30.12,South,180,0.0,0.0,57,0.00,,---,0.00,VWS V13.01,2013-03-11 14:02:00,
2013-03-11 08:07:00,33.0,19.4,30.13,ESE,112,0.0,0.0,57,0.00,,---,0.00,VWS V13.01,2013-03-11 14:07:00,
2013-03-11 08:13:00,32.9,19.8,30.12,ESE,112,0.0,0.0,58,0.00,,---,0.00,VWS V13.01,2013-03-11 14:13:00,
2013-03-11 08:18:00,32.9,19.8,30.12,ESE,112,0.0,0.0,58,0.00,,---,0.00,VWS V13.01,2013-03-11 14:18:00,
2013-03-11 08:23:00,32.9,19.8,30.12,ESE,112,2.6,2.6,58,0.00,,---,0.00,VWS V13.01,2013-03-11 14:23:00,
2013-03-11 08:28:00,32.9,19.8,30.12,ESE,112,0.0,0.0,58,0.00,,---,0.00,VWS V13.01,2013-03-11 14:28:00,
2013-03-11 08:33:00,32.9,19.8,30.13,ESE,112,0.0,0.0,58,0.00,,---,0.00,VWS V13.01,2013-03-11 14:33:00,
2013-03-11 08:38:00,32.9,19.8,30.13,ESE,112,0.0,0.0,58,0.00,,---,0.00,VWS V13.01,2013-03-11 14:38:00,
2013-03-11 08:43:00,33.0,19.9,30.13,ESE,112,0.0,0.0,58,0.00,,---,0.00,VWS V13.01,2013-03-11 14:43:00,
2013-03-11 08:48:00,33.2,20.0,30.13,ESE,112,0.0,0.0,58,0.00,,---,0.00,VWS V13.01,2013-03-11 14:48:00,
2013-03-11 08:53:00,33.4,20.6,30.13,ESE,112,0.0,0.0,59,0.00,,---,0.00,VWS V13.01,2013-03-11 14:53:00,
2013-03-11 08:58:00,33.6,20.8,30.14,ESE,112,0.0,0.0,59,0.00,,---,0.00,VWS V13.01,2013-03-11 14:58:00,
2013-03-11 09:03:00,34.1,21.3,30.13,ESE,112,0.0,0.0,59,0.00,,---,0.00,VWS V13.01,2013-03-11 15:03:00,
2013-03-11 09:08:00,34.3,21.5,30.14,ESE,112,0.0,0.0,59,0.00,,---,0.00,VWS V13.01,2013-03-11 15:08:00,
2013-03-11 09:13:00,34.3,21.5,30.14,SSW,202,0.0,0.0,59,0.00,,---,0.00,VWS V13.01,2013-03-11 15:13:00,
2013-03-11 09:19:00,34.8,21.5,30.13,SSW,202,0.0,0.0,58,0.00,,---,0.00,VWS V13.01,2013-03-11 15:19:00,
2013-03-11 09:24:00,35.0,21.7,30.13,SSW,202,0.0,0.0,58,0.00,,---,0.00,VWS V13.01,2013-03-11 15:24:00,
2013-03-11 09:29:00,35.2,21.9,30.13,SW,225,0.0,0.0,58,0.00,,---,0.00,VWS V13.01,2013-03-11 15:29:00,
2013-03-11 09:34:00,35.2,21.9,30.13,SW,225,0.0,0.0,58,0.00,,---,0.00,VWS V13.01,2013-03-11 15:34:00,
2013-03-11 09:39:00,35.4,22.5,30.13,SE,135,0.0,0.0,59,0.00,,---,0.00,VWS V13.01,2013-03-11 15:39:00,
2013-03-11 09:44:00,35.9,22.6,30.12,East,90,0.0,0.0,58,0.00,,---,0.00,VWS V13.01,2013-03-11 15:44:00,
2013-03-11 09:49:00,36.3,22.5,30.12,West,270,0.0,0.0,57,0.00,,---,0.00,VWS V13.01,2013-03-11 15:49:00,
2013-03-11 09:54:00,37.0,23.2,30.12,WSW,248,0.0,0.0,57,0.00,,---,0.00,VWS V13.01,2013-03-11 15:54:00,
2013-03-11 09:59:00,37.4,23.1,30.13,WSW,248,6.4,6.4,56,0.00,,---,0.00,VWS V13.01,2013-03-11 15:59:00,
2013-03-11 10:04:00,37.9,23.2,30.12,West,270,9.1,9.1,55,0.00,,---,0.00,VWS V13.01,2013-03-11 16:04:00,
2013-03-11 10:09:00,38.4,23.2,30.12,WSW,248,6.4,6.4,54,0.00,,---,0.00,VWS V13.01,2013-03-11 16:09:00,
2013-03-11 10:14:00,38.8,23.6,30.12,WSW,248,4.6,6.2,54,0.00,,---,0.00,VWS V13.01,2013-03-11 16:14:00,
2013-03-11 10:19:00,39.0,23.8,30.12,West,270,2.9,2.9,54,0.00,,---,0.00,VWS V13.01,2013-03-11 16:19:00,
2013-03-11 10:24:00,39.9,24.2,30.12,West,270,0.0,1.5,53,0.00,,---,0.00,VWS V13.01,2013-03-11 16:24:00,
2013-03-11 10:29:00,40.1,23.9,30.12,NW,315,6.0,6.0,52,0.00,,---,0.00,VWS V13.01,2013-03-11 16:29:00,
2013-03-11 10:34:00,40.6,23.9,30.11,NW,315,3.3,3.3,51,0.00,,---,0.00,VWS V13.01,2013-03-11 16:34:00,
2013-03-11 10:39:00,41.1,24.4,30.12,WSW,248,8.0,8.0,51,0.00,,---,0.00,VWS V13.01,2013-03-11 16:39:00,
2013-03-11 10:44:00,41.5,23.8,30.11,West,270,8.7,8.7,49,0.00,,---,0.00,VWS V13.01,2013-03-11 16:44:00,
2013-03-11 10:49:00,42.0,23.8,30.12,North,0,9.3,13.6,48,0.00,,---,0.00,VWS V13.01,2013-03-11 16:49:00,
2013-03-11 10:55:00,42.6,23.8,30.12,North,0,8.2,8.2,47,0.00,,---,0.00,VWS V13.01,2013-03-11 16:55:00,
2013-03-11 11:00:00,42.6,23.8,30.13,NNW,338,12.0,12.0,47,0.00,,---,0.00,VWS V13.01,2013-03-11 17:00:00,
2013-03-11 11:05:00,42.9,24.1,30.12,NNW,338,14.7,14.7,47,0.00,,---,0.00,VWS V13.01,2013-03-11 17:05:00,
2013-03-11 11:10:00,42.9,24.1,30.13,NNW,338,9.6,9.6,47,0.00,,---,0.00,VWS V13.01,2013-03-11 17:10:00,
2013-03-11 11:16:00,43.1,23.7,30.12,North,0,10.0,10.0,46,0.00,,---,0.00,VWS V13.01,2013-03-11 17:16:00,
2013-03-11 11:21:00,43.1,23.7,30.13,NNE,22,12.7,12.7,46,0.00,,---,0.00,VWS V13.01,2013-03-11 17:21:00,
2013-03-11 11:26:00,42.9,23.6,30.13,NE,45,6.7,6.7,46,0.00,,---,0.00,VWS V13.01,2013-03-11 17:26:00,
2013-03-11 11:31:00,42.0,22.7,30.13,ENE,68,10.5,10.5,46,0.00,,---,0.00,VWS V13.01,2013-03-11 17:31:00,
2013-03-11 11:36:00,41.1,22.4,30.14,ENE,68,14.5,14.5,47,0.00,,---,0.00,VWS V13.01,2013-03-11 17:36:00,
2013-03-11 11:42:00,40.4,22.8,30.14,ENE,68,15.8,15.8,49,0.00,,---,0.00,VWS V13.01,2013-03-11 17:42:00,
2013-03-11 11:47:00,40.1,23.0,30.14,ENE,68,10.7,10.7,50,0.00,,---,0.00,VWS V13.01,2013-03-11 17:47:00,
2013-03-11 11:52:00,39.9,23.3,30.13,ENE,68,13.4,13.4,51,0.00,,---,0.00,VWS V13.01,2013-03-11 17:52:00,
2013-03-11 11:57:00,40.1,23.4,30.13,ENE,68,10.2,10.2,51,0.00,,---,0.00,VWS V13.01,2013-03-11 17:57:00,
2013-03-11 12:02:00,40.2,23.5,30.14,ENE,68,9.8,9.8,51,0.00,,---,0.00,VWS V13.01,2013-03-11 18:02:00,
2013-03-11 12:08:00,40.4,23.2,30.15,ENE,68,0.0,0.0,50,0.00,,---,0.00,VWS V13.01,2013-03-11 18:08:00,
2013-03-11 12:13:00,40.6,23.4,30.14,NE,45,7.6,7.6,50,0.00,,---,0.00,VWS V13.01,2013-03-11 18:13:00,
2013-03-11 12:18:00,41.1,23.9,30.14,ENE,68,0.0,13.6,50,0.00,,---,0.00,VWS V13.01,2013-03-11 18:18:00,
2013-03-11 12:23:00,41.1,23.9,30.14,ENE,68,0.0,0.0,50,0.00,,---,0.00,VWS V13.01,2013-03-11 18:23:00,
2013-03-11 12:28:00,41.5,24.3,30.14,ENE,68,0.0,0.0,50,0.00,,---,0.00,VWS V13.01,2013-03-11 18:28:00,
2013-03-11 12:33:00,41.7,24.5,30.14,ENE,68,0.0,6.4,50,0.00,,---,0.00,VWS V13.01,2013-03-11 18:33:00,
2013-03-11 12:38:00,41.7,24.5,30.13,ENE,68,10.0,10.0,50,0.00,,---,0.00,VWS V13.01,2013-03-11 18:38:00,
2013-03-11 12:43:00,41.7,24.9,30.14,NNE,22,0.0,0.0,51,0.00,,---,0.00,VWS V13.01,2013-03-11 18:43:00,
2013-03-11 12:48:00,41.7,24.5,30.14,ENE,68,0.0,0.0,50,0.00,,---,0.00,VWS V13.01,2013-03-11 18:48:00,
2013-03-11 12:53:00,41.7,24.5,30.13,East,90,0.0,0.0,50,0.00,,---,0.00,VWS V13.01,2013-03-11 18:53:00,
2013-03-11 12:58:00,41.7,24.9,30.13,NE,45,0.0,0.0,51,0.00,,---,0.00,VWS V13.01,2013-03-11 18:58:00,
2013-03-11 13:03:00,41.9,25.1,30.13,NE,45,0.0,0.0,51,0.00,,---,0.00,VWS V13.01,2013-03-11 19:03:00,
2013-03-11 13:08:00,41.7,24.9,30.13,ENE,68,0.0,0.0,51,0.00,,---,0.00,VWS V13.01,2013-03-11 19:08:00,
2013-03-11 13:13:00,42.0,25.2,30.13,ENE,68,9.6,9.6,51,0.00,,---,0.00,VWS V13.01,2013-03-11 19:13:00,
2013-03-11 13:18:00,42.2,25.4,30.13,NE,45,0.0,0.0,51,0.00,,---,0.00,VWS V13.01,2013-03-11 19:18:00,
2013-03-11 13:23:00,42.2,25.4,30.13,NE,45,0.0,0.0,51,0.00,,---,0.00,VWS V13.01,2013-03-11 19:23:00,
2013-03-11 13:28:00,42.4,25.6,30.13,NE,45,0.0,0.0,51,0.00,,---,0.00,VWS V13.01,2013-03-11 19:28:00,
2013-03-11 13:33:00,42.0,25.2,30.13,NE,45,8.5,8.5,51,0.00,,---,0.00,VWS V13.01,2013-03-11 19:33:00,
2013-03-11 13:38:00,42.0,25.7,30.14,NE,45,0.0,0.0,52,0.00,,---,0.00,VWS V13.01,2013-03-11 19:38:00,
2013-03-11 13:43:00,42.0,25.7,30.14,North,0,0.0,0.0,52,0.00,,---,0.00,VWS V13.01,2013-03-11 19:43:00,
2013-03-11 13:48:00,41.9,25.6,30.14,ENE,68,0.0,0.0,52,0.00,,---,0.00,VWS V13.01,2013-03-11 19:48:00,
2013-03-11 13:53:00,41.7,25.4,30.14,NNE,22,0.0,0.0,52,0.00,,---,0.00,VWS V13.01,2013-03-11 19:53:00,
2013-03-11 13:58:00,41.7,25.4,30.14,NNE,22,0.0,0.0,52,0.00,,---,0.00,VWS V13.01,2013-03-11 19:58:00,
2013-03-11 14:03:00,41.9,25.6,30.14,ENE,68,17.2,17.2,52,0.00,,---,0.00,VWS V13.01,2013-03-11 20:03:00,
2013-03-11 14:08:00,41.5,25.7,30.14,ENE,68,0.0,0.0,53,0.00,,---,0.00,VWS V13.01,2013-03-11 20:08:00,
2013-03-11 14:13:00,41.1,25.3,30.14,NE,45,0.0,0.0,53,0.00,,---,0.00,VWS V13.01,2013-03-11 20:13:00,
2013-03-11 14:18:00,41.1,25.3,30.14,ENE,68,7.6,7.6,53,0.00,,---,0.00,VWS V13.01,2013-03-11 20:18:00,
2013-03-11 14:23:00,41.0,25.6,30.15,NE,45,10.7,10.7,54,0.00,,---,0.00,VWS V13.01,2013-03-11 20:23:00,
2013-03-11 14:28:00,40.6,25.3,30.15,NE,45,11.6,11.6,54,0.00,,---,0.00,VWS V13.01,2013-03-11 20:28:00,
2013-03-11 14:33:00,39.9,24.6,30.15,NE,45,0.0,0.0,54,0.00,,---,0.00,VWS V13.01,2013-03-11 20:33:00,
2013-03-11 14:38:00,39.9,24.2,30.16,NE,45,0.0,0.0,53,0.00,,---,0.00,VWS V13.01,2013-03-11 20:38:00,
2013-03-11 14:43:00,39.7,24.4,30.16,ENE,68,13.4,16.3,54,0.00,,---,0.00,VWS V13.01,2013-03-11 20:43:00,
2013-03-11 14:48:00,39.9,24.6,30.16,ENE,68,0.0,0.0,54,0.00,,---,0.00,VWS V13.01,2013-03-11 20:48:00,
2013-03-11 14:53:00,39.9,24.6,30.16,NNE,22,0.0,0.0,54,0.00,,---,0.00,VWS V13.01,2013-03-11 20:53:00,
2013-03-11 14:58:00,39.9,24.6,30.17,NNE,22,0.0,11.4,54,0.00,,---,0.00,VWS V13.01,2013-03-11 20:58:00,
2013-03-11 15:03:00,39.5,23.8,30.17,ENE,68,0.0,0.0,53,0.00,,---,0.00,VWS V13.01,2013-03-11 21:03:00,
2013-03-11 15:08:00,39.3,23.2,30.17,ENE,68,0.0,0.0,52,0.00,,---,0.00,VWS V13.01,2013-03-11 21:08:00,
2013-03-11 15:13:00,39.3,23.2,30.17,NE,45,0.0,0.0,52,0.00,,---,0.00,VWS V13.01,2013-03-11 21:13:00,
2013-03-11 15:18:00,39.3,23.2,30.17,NNE,22,0.0,0.0,52,0.00,,---,0.00,VWS V13.01,2013-03-11 21:18:00,
2013-03-11 15:23:00,39.0,22.9,30.17,NE,45,0.0,0.0,52,0.00,,---,0.00,VWS V13.01,2013-03-11 21:23:00,
2013-03-11 15:28:00,38.8,22.7,30.17,NNE,22,0.0,0.0,52,0.00,,---,0.00,VWS V13.01,2013-03-11 21:28:00,
2013-03-11 15:34:00,38.8,23.1,30.17,NE,45,0.0,0.0,53,0.00,,---,0.00,VWS V13.01,2013-03-11 21:34:00,
2013-03-11 15:39:00,38.8,22.7,30.18,ENE,68,0.0,0.0,52,0.00,,---,0.00,VWS V13.01,2013-03-11 21:39:00,
2013-03-11 15:44:00,38.8,22.7,30.19,NNE,22,5.1,5.1,52,0.00,,---,0.00,VWS V13.01,2013-03-11 21:44:00,
2013-03-11 15:49:00,38.4,22.3,30.18,North,0,0.0,0.0,52,0.00,,---,0.00,VWS V13.01,2013-03-11 21:49:00,
2013-03-11 15:54:00,38.4,22.3,30.19,NNE,22,0.0,0.0,52,0.00,,---,0.00,VWS V13.01,2013-03-11 21:54:00,
2013-03-11 15:59:00,38.4,22.3,30.20,North,0,0.0,0.0,52,0.00,,---,0.00,VWS V13.01,2013-03-11 21:59:00,
2013-03-11 16:04:00,38.4,22.3,30.20,NE,45,0.0,0.0,52,0.00,,---,0.00,VWS V13.01,2013-03-11 22:04:00,
2013-03-11 16:09:00,38.3,21.8,30.20,NNE,22,0.0,0.0,51,0.00,,---,0.00,VWS V13.01,2013-03-11 22:09:00,
2013-03-11 16:14:00,38.1,22.0,30.21,NNE,22,0.0,0.0,52,0.00,,---,0.00,VWS V13.01,2013-03-11 22:14:00,
2013-03-11 16:19:00,38.1,22.0,30.20,NE,45,0.0,0.0,52,0.00,,---,0.00,VWS V13.01,2013-03-11 22:19:00,
2013-03-11 16:24:00,37.9,21.9,30.20,NNE,22,0.0,10.7,52,0.00,,---,0.00,VWS V13.01,2013-03-11 22:24:00,
2013-03-11 16:29:00,37.7,21.7,30.21,NNE,22,0.0,0.0,52,0.00,,---,0.00,VWS V13.01,2013-03-11 22:29:00,
2013-03-11 16:34:00,37.5,21.5,30.20,NNE,22,0.0,0.0,52,0.00,,---,0.00,VWS V13.01,2013-03-11 22:34:00,
2013-03-11 16:39:00,37.2,21.2,30.21,NE,45,0.0,0.0,52,0.00,,---,0.00,VWS V13.01,2013-03-11 22:39:00,
2013-03-11 16:44:00,37.4,21.4,30.21,NE,45,9.8,9.8,52,0.00,,---,0.00,VWS V13.01,2013-03-11 22:44:00,
2013-03-11 16:49:00,37.2,21.2,30.21,NNE,22,12.7,12.7,52,0.00,,---,0.00,VWS V13.01,2013-03-11 22:49:00,
2013-03-11 16:54:00,37.2,21.2,30.22,NNE,22,10.2,10.2,52,0.00,,---,0.00,VWS V13.01,2013-03-11 22:54:00,
2013-03-11 16:59:00,36.8,20.8,30.22,NNE,22,10.0,10.0,52,0.00,,---,0.00,VWS V13.01,2013-03-11 22:59:00,
2013-03-11 17:04:00,36.8,20.8,30.22,NNW,338,11.4,11.4,52,0.00,,---,0.00,VWS V13.01,2013-03-11 23:04:00,
2013-03-11 17:09:00,36.6,20.6,30.22,NE,45,6.7,9.1,52,0.00,,---,0.00,VWS V13.01,2013-03-11 23:09:00,
2013-03-11 17:14:00,36.8,20.8,30.22,NNW,338,6.7,6.7,52,0.00,,---,0.00,VWS V13.01,2013-03-11 23:14:00,
2013-03-11 17:19:00,36.6,20.2,30.23,NNE,22,0.0,0.0,51,0.00,,---,0.00,VWS V13.01,2013-03-11 23:19:00,
2013-03-11 17:25:00,36.5,20.1,30.23,NNW,338,0.0,0.0,51,0.00,,---,0.00,VWS V13.01,2013-03-11 23:25:00,
2013-03-11 17:34:00,36.3,19.9,30.23,NE,45,0.0,0.0,51,0.00,,---,0.00,VWS V13.01,2013-03-11 23:34:00,
2013-03-11 17:40:00,36.1,19.3,30.24,North,0,0.0,0.0,50,0.00,,---,0.00,VWS V13.01,2013-03-11 23:40:00,
2013-03-11 17:46:00,35.9,19.1,30.24,NE,45,0.0,0.0,50,0.00,,---,0.00,VWS V13.01,2013-03-11 23:46:00,
2013-03-11 17:52:00,35.9,18.6,30.24,NE,45,0.0,0.0,49,0.00,,---,0.00,VWS V13.01,2013-03-11 23:52:00,
2013-03-11 17:58:00,35.7,18.4,30.25,North,0,0.0,0.0,49,0.00,,---,0.00,VWS V13.01,2013-03-11 23:58:00,
2013-03-11 18:04:00,35.7,18.4,30.25,NE,45,0.0,0.0,49,0.00,,---,0.00,VWS V13.01,2013-03-12 00:04:00,
2013-03-11 18:10:00,35.7,18.0,30.25,ENE,68,0.0,0.0,48,0.00,,---,0.00,VWS V13.01,2013-03-12 00:10:00,
2013-03-11 18:16:00,35.4,17.7,30.25,ENE,68,0.0,0.0,48,0.00,,---,0.00,VWS V13.01,2013-03-12 00:16:00,
2013-03-11 18:22:00,35.4,18.1,30.25,ENE,68,0.0,0.0,49,0.00,,---,0.00,VWS V13.01,2013-03-12 00:22:00,
2013-03-11 18:27:00,35.4,17.7,30.26,ENE,68,0.0,0.0,48,0.00,,---,0.00,VWS V13.01,2013-03-12 00:27:00,
2013-03-11 18:33:00,35.4,17.7,30.26,NNE,22,0.0,0.0,48,0.00,,---,0.00,VWS V13.01,2013-03-12 00:33:00,
2013-03-11 18:38:00,35.2,17.5,30.26,NNE,22,0.0,0.0,48,0.00,,---,0.00,VWS V13.01,2013-03-12 00:38:00,
2013-03-11 18:43:00,35.2,17.5,30.27,North,0,0.0,0.0,48,0.00,,---,0.00,VWS V13.01,2013-03-12 00:43:00,
2013-03-11 18:48:00,35.2,17.5,30.27,NE,45,6.0,6.0,48,0.00,,---,0.00,VWS V13.01,2013-03-12 00:48:00,
2013-03-11 18:53:00,35.2,17.5,30.27,NNE,22,0.0,0.0,48,0.00,,---,0.00,VWS V13.01,2013-03-12 00:53:00,
2013-03-11 18:59:00,34.8,17.1,30.27,NNW,338,0.0,0.0,48,0.00,,---,0.00,VWS V13.01,2013-03-12 00:59:00,
2013-03-11 19:04:00,34.8,17.1,30.27,NE,45,0.0,0.0,48,0.00,,---,0.00,VWS V13.01,2013-03-12 01:04:00,
2013-03-11 19:09:00,34.7,16.5,30.28,NNE,22,0.0,0.0,47,0.00,,---,0.00,VWS V13.01,2013-03-12 01:09:00,
2013-03-11 19:14:00,34.5,16.4,30.28,NE,45,0.0,0.0,47,0.00,,---,0.00,VWS V13.01,2013-03-12 01:14:00,
2013-03-11 19:19:00,34.3,16.2,30.28,NNE,22,0.0,0.0,47,0.00,,---,0.00,VWS V13.01,2013-03-12 01:19:00,
2013-03-11 19:24:00,34.3,16.2,30.28,NE,45,0.0,0.0,47,0.00,,---,0.00,VWS V13.01,2013-03-12 01:24:00,
2013-03-11 19:29:00,34.3,16.2,30.29,North,0,0.0,0.0,47,0.00,,---,0.00,VWS V13.01,2013-03-12 01:29:00,
2013-03-11 19:34:00,34.3,16.2,30.29,North,0,0.0,0.0,47,0.00,,---,0.00,VWS V13.01,2013-03-12 01:34:00,
2013-03-11 19:39:00,33.9,15.8,30.29,NE,45,0.0,0.0,47,0.00,,---,0.00,VWS V13.01,2013-03-12 01:39:00,
2013-03-11 19:44:00,33.9,15.8,30.29,NW,315,0.0,0.0,47,0.00,,---,0.00,VWS V13.01,2013-03-12 01:44:00,
2013-03-11 19:49:00,33.8,15.7,30.30,North,0,0.0,0.0,47,0.00,,---,0.00,VWS V13.01,2013-03-12 01:49:00,
2013-03-11 19:55:00,33.8,15.7,30.30,North,0,0.0,0.0,47,0.00,,---,0.00,VWS V13.01,2013-03-12 01:55:00,
2013-03-11 20:00:00,33.6,15.5,30.31,North,0,0.0,0.0,47,0.00,,---,0.00,VWS V13.01,2013-03-12 02:00:00,
2013-03-11 20:05:00,33.6,16.0,30.31,North,0,0.0,0.0,48,0.00,,---,0.00,VWS V13.01,2013-03-12 02:05:00,
2013-03-11 20:10:00,33.6,16.0,30.31,North,0,0.0,0.0,48,0.00,,---,0.00,VWS V13.01,2013-03-12 02:10:00,
2013-03-11 20:15:00,33.4,15.8,30.31,North,0,0.0,0.0,48,0.00,,---,0.00,VWS V13.01,2013-03-12 02:15:00,
2013-03-11 20:20:00,33.2,15.6,30.31,North,0,0.0,0.0,48,0.00,,---,0.00,VWS V13.01,2013-03-12 02:20:00,
2013-03-11 20:25:00,33.2,15.6,30.31,NE,45,0.0,0.0,48,0.00,,---,0.00,VWS V13.01,2013-03-12 02:25:00,
2013-03-11 20:30:00,33.0,15.5,30.31,NNE,22,0.0,0.0,48,0.00,,---,0.00,VWS V13.01,2013-03-12 02:30:00,
2013-03-11 20:36:00,33.0,15.9,30.31,NE,45,0.0,0.0,49,0.00,,---,0.00,VWS V13.01,2013-03-12 02:36:00,
2013-03-11 20:42:00,32.9,15.9,30.31,NE,45,0.0,0.0,49,0.00,,---,0.00,VWS V13.01,2013-03-12 02:42:00,
2013-03-11 20:47:00,32.9,15.9,30.31,North,0,0.0,0.0,49,0.00,,---,0.00,VWS V13.01,2013-03-12 02:47:00,
2013-03-11 20:53:00,32.7,15.7,30.31,NNE,22,0.0,0.0,49,0.00,,---,0.00,VWS V13.01,2013-03-12 02:53:00,
2013-03-11 20:58:00,32.7,15.7,30.32,North,0,0.0,0.0,49,0.00,,---,0.00,VWS V13.01,2013-03-12 02:58:00,
2013-03-11 21:03:00,32.7,15.7,30.32,NNE,22,0.0,0.0,49,0.00,,---,0.00,VWS V13.01,2013-03-12 03:03:00,
2013-03-11 21:08:00,32.5,15.9,30.33,NE,45,0.0,0.0,50,0.00,,---,0.00,VWS V13.01,2013-03-12 03:08:00,
2013-03-11 21:13:00,32.5,15.9,30.33,NNE,22,0.0,0.0,50,0.00,,---,0.00,VWS V13.01,2013-03-12 03:13:00,
2013-03-11 21:18:00,32.5,15.9,30.33,NE,45,0.0,0.0,50,0.00,,---,0.00,VWS V13.01,2013-03-12 03:18:00,
2013-03-11 21:23:00,32.3,15.8,30.33,NW,315,0.0,0.0,50,0.00,,---,0.00,VWS V13.01,2013-03-12 03:23:00,
2013-03-11 21:28:00,32.3,15.8,30.33,NNW,338,0.0,0.0,50,0.00,,---,0.00,VWS V13.01,2013-03-12 03:28:00,
2013-03-11 21:33:00,32.1,15.6,30.33,NNE,22,0.0,0.0,50,0.00,,---,0.00,VWS V13.01,2013-03-12 03:33:00,
2013-03-11 21:38:00,32.1,15.6,30.34,NE,45,0.0,0.0,50,0.00,,---,0.00,VWS V13.01,2013-03-12 03:38:00,
2013-03-11 21:43:00,32.1,16.0,30.33,NE,45,0.0,0.0,51,0.00,,---,0.00,VWS V13.01,2013-03-12 03:43:00,
2013-03-11 21:48:00,32.1,16.0,30.34,NE,45,0.0,0.0,51,0.00,,---,0.00,VWS V13.01,2013-03-12 03:48:00,
2013-03-11 21:53:00,32.0,15.9,30.34,NNE,22,0.0,0.0,51,0.00,,---,0.00,VWS V13.01,2013-03-12 03:53:00,
2013-03-11 21:58:00,31.8,15.8,30.34,NNE,22,0.0,0.0,51,0.00,,---,0.00,VWS V13.01,2013-03-12 03:58:00,
2013-03-11 22:00:00,31.8,15.8,30.34,NNE,22,0.0,0.0,51,0.00,,---,0.00,VWS V13.01,2013-03-12 04:00:00,
2013-03-11 22:02:00,31.8,15.8,30.34,NNE,22,0.0,0.0,51,0.00,,---,0.00,VWS V13.01,2013-03-12 04:02:00,
2013-03-11 22:04:00,31.8,15.8,30.34,NNE,22,0.0,0.0,51,0.00,,---,0.00,VWS V13.01,2013-03-12 04:04:00,
2013-03-11 22:09:00,31.8,15.8,30.34,WSW,248,0.0,0.0,51,0.00,,---,0.00,VWS V13.01,2013-03-12 04:09:00,
2013-03-11 22:14:00,31.8,15.8,30.34,West,270,0.0,0.0,51,0.00,,---,0.00,VWS V13.01,2013-03-12 04:14:00,
2013-03-11 22:19:00,31.6,15.6,30.35,West,270,0.0,0.0,51,0.00,,---,0.00,VWS V13.01,2013-03-12 04:19:00,
2013-03-11 22:24:00,31.6,15.6,30.35,West,270,0.0,0.0,51,0.00,,---,0.00,VWS V13.01,2013-03-12 04:24:00,
2013-03-11 22:29:00,31.6,15.6,30.35,West,270,0.0,0.0,51,0.00,,---,0.00,VWS V13.01,2013-03-12 04:29:00,
2013-03-11 22:34:00,31.6,16.0,30.35,West,270,0.0,0.0,52,0.00,,---,0.00,VWS V13.01,2013-03-12 04:34:00,
2013-03-11 22:39:00,31.6,15.6,30.36,West,270,0.0,0.0,51,0.00,,---,0.00,VWS V13.01,2013-03-12 04:39:00,
2013-03-11 22:44:00,31.6,15.6,30.35,West,270,0.0,0.0,51,0.00,,---,0.00,VWS V13.01,2013-03-12 04:44:00,
2013-03-11 22:49:00,31.6,16.0,30.35,West,270,0.0,0.0,52,0.00,,---,0.00,VWS V13.01,2013-03-12 04:49:00,
2013-03-11 22:54:00,31.6,16.0,30.36,West,270,0.0,0.0,52,0.00,,---,0.00,VWS V13.01,2013-03-12 04:54:00,
2013-03-11 22:59:00,31.6,16.0,30.36,WSW,248,0.0,0.0,52,0.00,,---,0.00,VWS V13.01,2013-03-12 04:59:00,
2013-03-11 23:04:00,31.6,16.0,30.36,WSW,248,0.0,0.0,52,0.00,,---,0.00,VWS V13.01,2013-03-12 05:04:00,
2013-03-11 23:09:00,31.6,16.0,30.36,WSW,248,0.0,0.0,52,0.00,,---,0.00,VWS V13.01,2013-03-12 05:09:00,
2013-03-11 23:14:00,31.6,16.0,30.36,WSW,248,0.0,0.0,52,0.00,,---,0.00,VWS V13.01,2013-03-12 05:14:00,
2013-03-11 23:19:00,31.6,16.0,30.36,SW,225,0.0,0.0,52,0.00,,---,0.00,VWS V13.01,2013-03-12 05:19:00,
2013-03-11 23:24:00,31.6,16.0,30.36,SSW,202,0.0,0.0,52,0.00,,---,0.00,VWS V13.01,2013-03-12 05:24:00,
2013-03-11 23:29:00,31.2,15.6,30.36,SSW,202,0.0,0.0,52,0.00,,---,0.00,VWS V13.01,2013-03-12 05:29:00,
2013-03-11 23:34:00,31.2,15.6,30.36,SSW,202,0.0,0.0,52,0.00,,---,0.00,VWS V13.01,2013-03-12 05:34:00,
2013-03-11 23:39:00,31.2,15.6,30.36,SSW,202,0.0,0.0,52,0.00,,---,0.00,VWS V13.01,2013-03-12 05:39:00,
2013-03-11 23:44:00,31.2,15.6,30.36,SSW,202,0.0,0.0,52,0.00,,---,0.00,VWS V13.01,2013-03-12 05:44:00,
2013-03-11 23:49:00,31.2,15.6,30.36,SSW,202,0.0,0.0,52,0.00,,---,0.00,VWS V13.01,2013-03-12 05:49:00,
2013-03-11 23:54:00,31.2,15.6,30.36,SSW,202,0.0,0.0,52,0.00,,---,0.00,VWS V13.01,2013-03-12 05:54:00,
2013-03-11 23:59:00,31.2,15.6,30.36,SSW,202,0.0,0.0,52,0.00,,---,0.00,VWS V13.01,2013-03-12 05:59:00,